sensor_id;sensor_type;location;lat;lon;timestamp;pressure;altitude;pressure_sealevel;temperature;humidity
16461;BME280;8341;42.048;24.650;2023-05-16T00:02:09;97131.97;;;13.92;100.00
16461;BME280;8341;42.048;24.650;2023-05-16T00:04:38;97133.72;;;13.90;100.00
16461;BME280;8341;42.048;24.650;2023-05-16T00:07:05;97125.00;;;13.91;100.00
16461;BME280;8341;42.048;24.650;2023-05-16T00:09:32;97125.75;;;13.86;100.00
16461;BME280;8341;42.048;24.650;2023-05-16T00:11:59;97117.00;;;13.82;100.00
16461;BME280;8341;42.048;24.650;2023-05-16T00:14:26;97107.31;;;13.81;100.00
16461;BME280;8341;42.048;24.650;2023-05-16T00:16:54;97120.50;;;13.88;100.00
16461;BME280;8341;42.048;24.650;2023-05-16T00:19:23;97106.81;;;13.88;100.00
16461;BME280;8341;42.048;24.650;2023-05-16T00:21:52;97101.81;;;13.92;100.00
16461;BME280;8341;42.048;24.650;2023-05-16T00:24:19;97113.53;;;13.87;100.00
16461;BME280;8341;42.048;24.650;2023-05-16T00:26:46;97119.25;;;13.95;100.00
16461;BME280;8341;42.048;24.650;2023-05-16T00:29:13;97116.78;;;13.97;100.00
16461;BME280;8341;42.048;24.650;2023-05-16T00:31:40;97119.28;;;14.00;100.00
16461;BME280;8341;42.048;24.650;2023-05-16T00:34:07;97112.31;;;13.99;100.00
16461;BME280;8341;42.048;24.650;2023-05-16T00:36:34;97112.03;;;14.03;100.00
16461;BME280;8341;42.048;24.650;2023-05-16T00:39:03;97119.28;;;14.06;100.00
16461;BME280;8341;42.048;24.650;2023-05-16T00:41:30;97108.31;;;14.06;100.00
16461;BME280;8341;42.048;24.650;2023-05-16T00:43:57;97103.06;;;14.08;100.00
16461;BME280;8341;42.048;24.650;2023-05-16T00:46:24;97094.84;;;14.08;100.00
16461;BME280;8341;42.048;24.650;2023-05-16T00:48:51;97098.34;;;14.08;100.00
16461;BME280;8341;42.048;24.650;2023-05-16T00:51:19;97101.31;;;14.10;100.00
16461;BME280;8341;42.048;24.650;2023-05-16T00:53:46;97094.34;;;13.98;100.00
16461;BME280;8341;42.048;24.650;2023-05-16T00:56:15;97078.66;;;13.99;100.00
16461;BME280;8341;42.048;24.650;2023-05-16T00:58:43;97083.13;;;14.07;100.00
16461;BME280;8341;42.048;24.650;2023-05-16T01:01:10;97094.59;;;14.11;100.00
16461;BME280;8341;42.048;24.650;2023-05-16T01:03:38;97087.13;;;14.06;100.00
16461;BME280;8341;42.048;24.650;2023-05-16T01:06:05;97086.63;;;14.08;100.00
16461;BME280;8341;42.048;24.650;2023-05-16T01:08:32;97075.16;;;14.04;100.00
16461;BME280;8341;42.048;24.650;2023-05-16T01:11:05;97084.88;;;13.99;100.00
16461;BME280;8341;42.048;24.650;2023-05-16T01:13:40;97077.16;;;13.92;100.00
16461;BME280;8341;42.048;24.650;2023-05-16T01:16:15;97073.66;;;13.86;100.00
16461;BME280;8341;42.048;24.650;2023-05-16T01:18:52;97084.34;;;13.84;100.00
16461;BME280;8341;42.048;24.650;2023-05-16T01:21:36;97072.16;;;13.79;100.00
16461;BME280;8341;42.048;24.650;2023-05-16T01:24:13;97076.63;;;13.77;100.00
16461;BME280;8341;42.048;24.650;2023-05-16T01:26:42;97063.94;;;13.79;100.00
16461;BME280;8341;42.048;24.650;2023-05-16T01:29:11;97059.44;;;13.76;100.00
16461;BME280;8341;42.048;24.650;2023-05-16T03:33:24;97032.25;;;13.40;100.00
16461;BME280;8341;42.048;24.650;2023-05-16T03:35:51;97038.00;;;13.47;100.00
16461;BME280;8341;42.048;24.650;2023-05-16T03:38:19;97040.75;;;13.53;100.00
16461;BME280;8341;42.048;24.650;2023-05-16T03:40:46;97039.00;;;13.55;100.00
16461;BME280;8341;42.048;24.650;2023-05-16T03:43:13;97041.75;;;13.50;100.00
16461;BME280;8341;42.048;24.650;2023-05-16T03:45:40;97041.75;;;13.61;100.00
16461;BME280;8341;42.048;24.650;2023-05-16T03:48:07;97044.50;;;13.61;100.00
16461;BME280;8341;42.048;24.650;2023-05-16T03:50:36;97046.50;;;13.66;100.00
16461;BME280;8341;42.048;24.650;2023-05-16T03:53:04;97039.28;;;13.63;100.00
16461;BME280;8341;42.048;24.650;2023-05-16T03:55:31;97040.50;;;13.67;100.00
16461;BME280;8341;42.048;24.650;2023-05-16T03:57:58;97037.78;;;13.67;100.00
16461;BME280;8341;42.048;24.650;2023-05-16T04:00:25;97010.63;;;13.69;100.00
16461;BME280;8341;42.048;24.650;2023-05-16T04:02:52;97035.03;;;13.95;100.00
16461;BME280;8341;42.048;24.650;2023-05-16T04:05:19;97029.31;;;14.04;100.00
16461;BME280;8341;42.048;24.650;2023-05-16T04:07:48;97024.31;;;14.08;100.00
16461;BME280;8341;42.048;24.650;2023-05-16T04:10:15;97023.03;;;14.26;100.00
16461;BME280;8341;42.048;24.650;2023-05-16T04:12:42;97019.03;;;14.43;100.00
16461;BME280;8341;42.048;24.650;2023-05-16T04:15:09;97014.06;;;14.48;100.00
16461;BME280;8341;42.048;24.650;2023-05-16T04:17:36;97018.72;;;14.64;100.00
16461;BME280;8341;42.048;24.650;2023-05-16T04:20:05;97021.41;;;14.80;100.00
16461;BME280;8341;42.048;24.650;2023-05-16T04:22:32;97018.63;;;14.91;100.00
16461;BME280;8341;42.048;24.650;2023-05-16T04:25:01;97015.09;;;15.02;100.00
16461;BME280;8341;42.048;24.650;2023-05-16T04:27:28;97011.81;;;15.09;100.00
16461;BME280;8341;42.048;24.650;2023-05-16T04:29:56;97023.72;;;15.23;100.00
16461;BME280;8341;42.048;24.650;2023-05-16T04:32:24;97033.88;;;15.33;100.00
16461;BME280;8341;42.048;24.650;2023-05-16T04:34:53;97030.34;;;15.38;100.00
16461;BME280;8341;42.048;24.650;2023-05-16T04:37:20;97029.06;;;15.45;100.00
16461;BME280;8341;42.048;24.650;2023-05-16T04:39:47;97032.50;;;15.56;100.00
16461;BME280;8341;42.048;24.650;2023-05-16T04:42:15;97026.72;;;15.65;100.00
16461;BME280;8341;42.048;24.650;2023-05-16T04:44:42;97032.16;;;15.77;100.00
16461;BME280;8341;42.048;24.650;2023-05-16T04:47:09;97032.81;;;15.83;100.00
16461;BME280;8341;42.048;24.650;2023-05-16T04:49:37;97029.50;;;15.90;100.00
16461;BME280;8341;42.048;24.650;2023-05-16T04:52:05;97031.19;;;15.98;100.00
16461;BME280;8341;42.048;24.650;2023-05-16T04:54:34;97035.06;;;16.14;100.00
16461;BME280;8341;42.048;24.650;2023-05-16T04:57:01;97034.72;;;16.23;100.00
16461;BME280;8341;42.048;24.650;2023-05-16T04:59:29;97033.38;;;16.35;100.00
16461;BME280;8341;42.048;24.650;2023-05-16T05:01:56;97037.34;;;16.40;100.00
16461;BME280;8341;42.048;24.650;2023-05-16T05:04:24;97040.69;;;16.51;100.00
16461;BME280;8341;42.048;24.650;2023-05-16T05:06:51;97047.47;;;16.50;100.00
16461;BME280;8341;42.048;24.650;2023-05-16T05:09:18;97036.41;;;16.32;100.00
16461;BME280;8341;42.048;24.650;2023-05-16T05:11:45;97042.66;;;16.32;100.00
16461;BME280;8341;42.048;24.650;2023-05-16T05:14:12;97029.56;;;16.14;100.00
16461;BME280;8341;42.048;24.650;2023-05-16T05:16:40;97040.22;;;16.23;100.00
16461;BME280;8341;42.048;24.650;2023-05-16T05:19:07;97039.03;;;15.89;100.00
16461;BME280;8341;42.048;24.650;2023-05-16T05:21:34;97030.56;;;15.51;100.00
16461;BME280;8341;42.048;24.650;2023-05-16T05:24:02;97035.69;;;15.25;100.00
16461;BME280;8341;42.048;24.650;2023-05-16T05:26:29;97031.00;;;15.15;100.00
16461;BME280;8341;42.048;24.650;2023-05-16T05:28:56;97038.97;;;15.18;100.00
16461;BME280;8341;42.048;24.650;2023-05-16T05:31:23;97045.88;;;14.84;100.00
16461;BME280;8341;42.048;24.650;2023-05-16T05:33:52;97030.94;;;14.74;100.00
16461;BME280;8341;42.048;24.650;2023-05-16T05:36:19;97030.97;;;14.63;100.00
16461;BME280;8341;42.048;24.650;2023-05-16T05:38:46;97024.97;;;14.64;100.00
16461;BME280;8341;42.048;24.650;2023-05-16T05:41:13;97022.22;;;14.59;100.00
16461;BME280;8341;42.048;24.650;2023-05-16T05:43:40;97029.75;;;14.53;100.00
16461;BME280;8341;42.048;24.650;2023-05-16T05:46:07;97028.78;;;14.22;100.00
16461;BME280;8341;42.048;24.650;2023-05-16T05:48:34;97019.81;;;14.27;100.00
16461;BME280;8341;42.048;24.650;2023-05-16T05:51:03;97023.03;;;14.48;100.00
16461;BME280;8341;42.048;24.650;2023-05-16T05:53:30;97030.44;;;14.64;100.00
16461;BME280;8341;42.048;24.650;2023-05-16T05:55:57;97021.19;;;14.78;100.00
16461;BME280;8341;42.048;24.650;2023-05-16T05:58:24;97015.91;;;14.86;100.00
16461;BME280;8341;42.048;24.650;2023-05-16T06:00:51;97011.19;;;14.81;100.00
16461;BME280;8341;42.048;24.650;2023-05-16T06:03:18;97017.38;;;14.87;100.00
16461;BME280;8341;42.048;24.650;2023-05-16T06:05:45;97035.81;;;14.97;100.00
16461;BME280;8341;42.048;24.650;2023-05-16T06:08:13;97018.22;;;14.71;100.00
16461;BME280;8341;42.048;24.650;2023-05-16T06:10:40;97015.47;;;14.76;100.00
16461;BME280;8341;42.048;24.650;2023-05-16T06:13:07;97036.88;;;14.89;100.00
16461;BME280;8341;42.048;24.650;2023-05-16T06:15:35;97044.81;;;14.98;100.00
16461;BME280;8341;42.048;24.650;2023-05-16T06:18:02;97050.53;;;15.00;100.00
16461;BME280;8341;42.048;24.650;2023-05-16T06:20:29;97022.69;;;14.74;100.00
16461;BME280;8341;42.048;24.650;2023-05-16T06:22:56;97029.75;;;14.53;100.00
16461;BME280;8341;42.048;24.650;2023-05-16T06:25:24;97025.94;;;14.67;100.00
16461;BME280;8341;42.048;24.650;2023-05-16T06:27:51;97026.16;;;14.80;100.00
16461;BME280;8341;42.048;24.650;2023-05-16T06:30:18;97026.09;;;14.96;100.00
16461;BME280;8341;42.048;24.650;2023-05-16T06:32:45;97025.88;;;14.89;100.00
16461;BME280;8341;42.048;24.650;2023-05-16T06:35:12;97039.03;;;15.07;100.00
16461;BME280;8341;42.048;24.650;2023-05-16T06:37:39;97025.72;;;15.22;100.00
16461;BME280;8341;42.048;24.650;2023-05-16T06:40:06;97020.88;;;15.39;100.00
16461;BME280;8341;42.048;24.650;2023-05-16T06:42:35;97013.63;;;15.36;100.00
16461;BME280;8341;42.048;24.650;2023-05-16T06:45:02;97011.31;;;15.51;100.00
16461;BME280;8341;42.048;24.650;2023-05-16T06:47:30;97019.44;;;15.68;100.00
16461;BME280;8341;42.048;24.650;2023-05-16T06:49:57;97016.91;;;15.76;100.00
16461;BME280;8341;42.048;24.650;2023-05-16T06:52:24;97023.34;;;15.84;100.00
16461;BME280;8341;42.048;24.650;2023-05-16T06:54:51;97018.34;;;15.82;100.00
16461;BME280;8341;42.048;24.650;2023-05-16T06:57:18;97009.66;;;16.02;100.00
16461;BME280;8341;42.048;24.650;2023-05-16T06:59:47;97017.63;;;16.06;100.00
16461;BME280;8341;42.048;24.650;2023-05-16T07:02:14;97002.00;;;15.90;100.00
16461;BME280;8341;42.048;24.650;2023-05-16T07:04:41;97012.53;;;15.91;100.00
16461;BME280;8341;42.048;24.650;2023-05-16T07:07:08;97020.13;;;16.09;100.00
16461;BME280;8341;42.048;24.650;2023-05-16T07:09:35;97009.41;;;16.30;100.00
16461;BME280;8341;42.048;24.650;2023-05-16T07:12:02;97006.84;;;16.38;100.00
16461;BME280;8341;42.048;24.650;2023-05-16T07:14:29;96998.13;;;16.58;100.00
16461;BME280;8341;42.048;24.650;2023-05-16T07:16:57;96996.44;;;16.73;100.00
16461;BME280;8341;42.048;24.650;2023-05-16T07:19:24;96999.22;;;16.92;100.00
16461;BME280;8341;42.048;24.650;2023-05-16T07:21:51;96995.22;;;17.12;100.00
16461;BME280;8341;42.048;24.650;2023-05-16T07:24:19;96994.25;;;17.28;100.00
16461;BME280;8341;42.048;24.650;2023-05-16T07:26:46;96995.78;;;17.42;100.00
16461;BME280;8341;42.048;24.650;2023-05-16T07:29:13;96990.28;;;17.61;100.00
16461;BME280;8341;42.048;24.650;2023-05-16T07:31:40;96983.88;;;17.52;100.00
16461;BME280;8341;42.048;24.650;2023-05-16T07:34:08;96992.19;;;17.66;100.00
16461;BME280;8341;42.048;24.650;2023-05-16T07:36:35;96997.75;;;17.79;100.00
16461;BME280;8341;42.048;24.650;2023-05-16T07:39:02;96998.25;;;17.77;100.00
16461;BME280;8341;42.048;24.650;2023-05-16T07:41:29;97002.88;;;17.88;100.00
16461;BME280;8341;42.048;24.650;2023-05-16T07:43:56;96993.75;;;17.93;100.00
16461;BME280;8341;42.048;24.650;2023-05-16T07:46:23;96993.31;;;17.89;100.00
16461;BME280;8341;42.048;24.650;2023-05-16T07:48:50;96988.91;;;17.67;98.80
16461;BME280;8341;42.048;24.650;2023-05-16T07:51:19;96992.66;;;17.51;98.87
16461;BME280;8341;42.048;24.650;2023-05-16T07:53:46;96982.69;;;17.29;100.00
16461;BME280;8341;42.048;24.650;2023-05-16T07:56:13;96977.19;;;16.92;100.00
16461;BME280;8341;42.048;24.650;2023-05-16T07:58:40;96969.59;;;16.98;100.00
16461;BME280;8341;42.048;24.650;2023-05-16T08:01:07;96959.53;;;17.01;100.00
16461;BME280;8341;42.048;24.650;2023-05-16T08:03:34;96959.31;;;16.99;100.00
16461;BME280;8341;42.048;24.650;2023-05-16T08:06:01;96962.97;;;17.07;100.00
16461;BME280;8341;42.048;24.650;2023-05-16T08:08:30;96957.59;;;17.14;100.00
16461;BME280;8341;42.048;24.650;2023-05-16T08:10:57;96964.56;;;17.34;100.00
16461;BME280;8341;42.048;24.650;2023-05-16T08:13:24;96962.84;;;17.49;100.00
16461;BME280;8341;42.048;24.650;2023-05-16T08:15:51;96963.13;;;17.65;100.00
16461;BME280;8341;42.048;24.650;2023-05-16T08:18:18;96968.00;;;17.40;100.00
16461;BME280;8341;42.048;24.650;2023-05-16T08:20:45;96970.66;;;17.64;100.00
16461;BME280;8341;42.048;24.650;2023-05-16T08:23:12;96975.94;;;17.62;100.00
16461;BME280;8341;42.048;24.650;2023-05-16T08:25:41;96976.56;;;17.55;100.00
16461;BME280;8341;42.048;24.650;2023-05-16T08:28:08;96981.38;;;17.49;100.00
16461;BME280;8341;42.048;24.650;2023-05-16T08:30:35;96968.56;;;17.20;100.00
16461;BME280;8341;42.048;24.650;2023-05-16T08:33:02;96960.06;;;16.80;100.00
16461;BME280;8341;42.048;24.650;2023-05-16T08:35:29;96954.78;;;16.82;100.00
16461;BME280;8341;42.048;24.650;2023-05-16T08:37:57;96956.13;;;16.95;100.00
16461;BME280;8341;42.048;24.650;2023-05-16T08:40:25;96962.28;;;17.01;100.00
16461;BME280;8341;42.048;24.650;2023-05-16T08:42:53;96939.97;;;16.85;100.00
16461;BME280;8341;42.048;24.650;2023-05-16T08:45:21;96948.22;;;17.04;100.00
16461;BME280;8341;42.048;24.650;2023-05-16T08:47:49;96943.28;;;17.16;100.00
16461;BME280;8341;42.048;24.650;2023-05-16T08:50:17;96947.53;;;17.17;100.00
16461;BME280;8341;42.048;24.650;2023-05-16T08:52:46;96946.72;;;17.22;100.00
16461;BME280;8341;42.048;24.650;2023-05-16T08:55:18;96943.00;;;17.19;100.00
16461;BME280;8341;42.048;24.650;2023-05-16T08:57:47;96956.78;;;17.19;100.00
16461;BME280;8341;42.048;24.650;2023-05-16T09:00:16;96958.44;;;17.09;100.00
16461;BME280;8341;42.048;24.650;2023-05-16T09:02:44;96944.50;;;17.02;100.00
16461;BME280;8341;42.048;24.650;2023-05-16T09:05:12;96952.09;;;16.96;100.00
16461;BME280;8341;42.048;24.650;2023-05-16T09:07:39;96960.72;;;16.68;100.00
16461;BME280;8341;42.048;24.650;2023-05-16T09:10:07;96957.09;;;16.78;100.00
16461;BME280;8341;42.048;24.650;2023-05-16T09:12:34;96950.69;;;16.89;100.00
16461;BME280;8341;42.048;24.650;2023-05-16T09:15:02;96942.34;;;16.76;100.00
16461;BME280;8341;42.048;24.650;2023-05-16T09:17:35;96939.28;;;16.79;100.00
16461;BME280;8341;42.048;24.650;2023-05-16T09:20:11;96950.97;;;17.04;100.00
16461;BME280;8341;42.048;24.650;2023-05-16T09:22:38;96960.22;;;17.07;100.00
16461;BME280;8341;42.048;24.650;2023-05-16T09:25:07;96963.78;;;17.20;100.00
16461;BME280;8341;42.048;24.650;2023-05-16T09:27:34;96931.91;;;17.25;100.00
16461;BME280;8341;42.048;24.650;2023-05-16T09:30:01;96924.91;;;17.05;100.00
16461;BME280;8341;42.048;24.650;2023-05-16T09:32:30;96920.81;;;16.74;100.00
16461;BME280;8341;42.048;24.650;2023-05-16T09:34:58;96927.69;;;16.86;100.00
16461;BME280;8341;42.048;24.650;2023-05-16T09:37:25;96921.38;;;16.92;100.00
16461;BME280;8341;42.048;24.650;2023-05-16T09:39:53;96928.34;;;17.11;100.00
16461;BME280;8341;42.048;24.650;2023-05-16T09:42:20;96943.34;;;17.29;100.00
16461;BME280;8341;42.048;24.650;2023-05-16T09:44:49;96930.84;;;17.28;100.00
16461;BME280;8341;42.048;24.650;2023-05-16T09:47:17;96941.34;;;17.11;100.00
16461;BME280;8341;42.048;24.650;2023-05-16T09:49:45;96938.66;;;17.24;100.00
16461;BME280;8341;42.048;24.650;2023-05-16T09:52:15;96927.28;;;17.14;100.00
16461;BME280;8341;42.048;24.650;2023-05-16T09:54:42;96931.44;;;17.21;100.00
16461;BME280;8341;42.048;24.650;2023-05-16T09:57:17;96925.00;;;17.00;100.00
16461;BME280;8341;42.048;24.650;2023-05-16T09:59:44;96927.38;;;17.09;100.00
16461;BME280;8341;42.048;24.650;2023-05-16T10:02:12;96924.88;;;17.24;100.00
16461;BME280;8341;42.048;24.650;2023-05-16T10:04:39;96915.66;;;17.21;100.00
16461;BME280;8341;42.048;24.650;2023-05-16T10:07:06;96924.09;;;17.42;100.00
16461;BME280;8341;42.048;24.650;2023-05-16T10:09:36;96920.91;;;17.70;100.00
16461;BME280;8341;42.048;24.650;2023-05-16T10:12:07;96935.66;;;17.72;100.00
16461;BME280;8341;42.048;24.650;2023-05-16T10:14:35;96927.66;;;18.00;100.00
16461;BME280;8341;42.048;24.650;2023-05-16T10:17:03;96923.81;;;17.90;100.00
16461;BME280;8341;42.048;24.650;2023-05-16T10:19:31;96913.38;;;17.57;100.00
16461;BME280;8341;42.048;24.650;2023-05-16T10:22:03;96898.94;;;17.64;100.00
16461;BME280;8341;42.048;24.650;2023-05-16T10:24:42;96901.34;;;17.86;100.00
16461;BME280;8341;42.048;24.650;2023-05-16T10:27:10;96905.06;;;18.15;100.00
16461;BME280;8341;42.048;24.650;2023-05-16T10:29:38;96902.63;;;18.38;100.00
16461;BME280;8341;42.048;24.650;2023-05-16T10:32:07;96900.16;;;18.60;100.00
16461;BME280;8341;42.048;24.650;2023-05-16T10:34:34;96883.78;;;18.75;99.89
16461;BME280;8341;42.048;24.650;2023-05-16T10:37:02;96871.59;;;18.58;96.89
16461;BME280;8341;42.048;24.650;2023-05-16T10:39:31;96877.25;;;18.86;96.77
16461;BME280;8341;42.048;24.650;2023-05-16T10:42:00;96875.75;;;19.19;94.98
16461;BME280;8341;42.048;24.650;2023-05-16T10:44:31;96885.63;;;19.27;93.86
16461;BME280;8341;42.048;24.650;2023-05-16T10:46:58;96891.53;;;19.31;91.66
16461;BME280;8341;42.048;24.650;2023-05-16T10:49:30;96885.69;;;19.35;92.24
16461;BME280;8341;42.048;24.650;2023-05-16T10:52:05;96884.69;;;19.46;92.19
16461;BME280;8341;42.048;24.650;2023-05-16T10:54:37;96870.50;;;19.70;91.40
16461;BME280;8341;42.048;24.650;2023-05-16T10:57:11;96869.28;;;19.78;88.86
16461;BME280;8341;42.048;24.650;2023-05-16T10:59:44;96868.72;;;19.80;88.22
16461;BME280;8341;42.048;24.650;2023-05-16T11:02:22;96864.06;;;19.75;89.00
16461;BME280;8341;42.048;24.650;2023-05-16T11:04:50;96867.13;;;19.84;90.28
16461;BME280;8341;42.048;24.650;2023-05-16T11:07:18;96867.13;;;19.84;90.74
16461;BME280;8341;42.048;24.650;2023-05-16T11:10:01;96879.59;;;19.78;91.20
16461;BME280;8341;42.048;24.650;2023-05-16T11:12:52;96885.50;;;19.74;88.67
16461;BME280;8341;42.048;24.650;2023-05-16T11:15:23;96868.47;;;19.70;88.34
16461;BME280;8341;42.048;24.650;2023-05-16T11:18:02;96857.88;;;19.82;88.06
16461;BME280;8341;42.048;24.650;2023-05-16T11:20:31;96859.59;;;19.92;86.64
16461;BME280;8341;42.048;24.650;2023-05-16T11:23:19;96858.66;;;19.90;85.81
16461;BME280;8341;42.048;24.650;2023-05-16T11:25:48;96867.13;;;19.84;86.82
16461;BME280;8341;42.048;24.650;2023-05-16T11:28:17;96875.00;;;19.80;86.32
16461;BME280;8341;42.048;24.650;2023-05-16T11:30:46;96875.13;;;19.75;86.98
16461;BME280;8341;42.048;24.650;2023-05-16T11:33:14;96878.41;;;19.66;88.09
16461;BME280;8341;42.048;24.650;2023-05-16T11:35:41;96869.09;;;19.56;88.86
16461;BME280;8341;42.048;24.650;2023-05-16T11:38:12;96872.41;;;19.54;89.62
16461;BME280;8341;42.048;24.650;2023-05-16T11:40:44;96870.44;;;19.62;90.14
16461;BME280;8341;42.048;24.650;2023-05-16T11:43:16;96871.59;;;19.67;90.15
16461;BME280;8341;42.048;24.650;2023-05-16T11:45:45;96863.50;;;19.69;90.73
16461;BME280;8341;42.048;24.650;2023-05-16T11:48:12;96865.19;;;19.72;90.13
16461;BME280;8341;42.048;24.650;2023-05-16T11:50:40;96852.63;;;19.71;90.16
16461;BME280;8341;42.048;24.650;2023-05-16T11:53:07;96852.34;;;19.82;90.18
16461;BME280;8341;42.048;24.650;2023-05-16T11:55:34;96843.53;;;19.91;91.36
16461;BME280;8341;42.048;24.650;2023-05-16T11:58:03;96842.44;;;19.94;89.22
16461;BME280;8341;42.048;24.650;2023-05-16T12:00:31;96854.25;;;19.94;89.03
16461;BME280;8341;42.048;24.650;2023-05-16T12:03:02;96862.91;;;19.91;90.53
16461;BME280;8341;42.048;24.650;2023-05-16T12:05:29;96860.13;;;19.91;91.21
16461;BME280;8341;42.048;24.650;2023-05-16T12:07:57;96850.75;;;19.94;90.99
16461;BME280;8341;42.048;24.650;2023-05-16T12:10:24;96856.88;;;20.00;90.69
16461;BME280;8341;42.048;24.650;2023-05-16T12:12:52;96856.47;;;19.96;90.20
16461;BME280;8341;42.048;24.650;2023-05-16T12:15:21;96871.09;;;20.04;89.39
16461;BME280;8341;42.048;24.650;2023-05-16T12:17:48;96856.47;;;19.96;89.72
16461;BME280;8341;42.048;24.650;2023-05-16T12:20:18;96847.38;;;19.60;91.31
16461;BME280;8341;42.048;24.650;2023-05-16T12:22:45;96853.00;;;19.75;92.70
16461;BME280;8341;42.048;24.650;2023-05-16T12:25:24;96851.94;;;19.78;92.97
16461;BME280;8341;42.048;24.650;2023-05-16T12:27:52;96843.81;;;19.31;95.59
16461;BME280;8341;42.048;24.650;2023-05-16T12:30:21;96840.66;;;19.48;93.62
16461;BME280;8341;42.048;24.650;2023-05-16T12:32:54;96844.81;;;19.62;93.89
16461;BME280;8341;42.048;24.650;2023-05-16T12:35:24;96839.38;;;19.49;94.55
16461;BME280;8341;42.048;24.650;2023-05-16T12:37:52;96831.66;;;19.34;98.14
16461;BME280;8341;42.048;24.650;2023-05-16T12:40:19;96832.38;;;19.76;97.60
16461;BME280;8341;42.048;24.650;2023-05-16T12:42:48;96805.00;;;20.00;96.48
16461;BME280;8341;42.048;24.650;2023-05-16T12:45:17;96801.13;;;19.96;93.14
16461;BME280;8341;42.048;24.650;2023-05-16T12:47:44;96806.78;;;20.19;93.32
16461;BME280;8341;42.048;24.650;2023-05-16T12:50:12;96767.19;;;20.03;92.77
16461;BME280;8341;42.048;24.650;2023-05-16T12:52:49;96799.09;;;20.32;93.60
16461;BME280;8341;42.048;24.650;2023-05-16T12:55:16;96791.78;;;20.50;92.61
16461;BME280;8341;42.048;24.650;2023-05-16T12:57:44;96795.72;;;20.70;90.36
16461;BME280;8341;42.048;24.650;2023-05-16T13:00:13;96788.00;;;20.91;91.42
16461;BME280;8341;42.048;24.650;2023-05-16T13:02:40;96779.31;;;20.79;89.61
16461;BME280;8341;42.048;24.650;2023-05-16T13:05:07;96781.84;;;20.62;88.54
16461;BME280;8341;42.048;24.650;2023-05-16T13:07:35;96782.53;;;20.47;92.87
16461;BME280;8341;42.048;24.650;2023-05-16T13:10:06;96783.97;;;21.07;92.09
16461;BME280;8341;42.048;24.650;2023-05-16T13:12:35;96778.38;;;20.84;91.79
16461;BME280;8341;42.048;24.650;2023-05-16T13:15:03;96775.66;;;21.30;92.83
16461;BME280;8341;42.048;24.650;2023-05-16T13:17:32;96764.00;;;21.61;89.78
16461;BME280;8341;42.048;24.650;2023-05-16T13:19:59;96771.59;;;21.23;87.33
16461;BME280;8341;42.048;24.650;2023-05-16T13:22:26;96769.19;;;21.42;90.07
16461;BME280;8341;42.048;24.650;2023-05-16T13:24:53;96761.97;;;21.54;89.20
16461;BME280;8341;42.048;24.650;2023-05-16T13:27:21;96759.78;;;21.15;89.23
16461;BME280;8341;42.048;24.650;2023-05-16T13:29:48;96758.47;;;21.16;89.19
16461;BME280;8341;42.048;24.650;2023-05-16T13:32:15;96761.00;;;20.69;92.56
16461;BME280;8341;42.048;24.650;2023-05-16T13:34:43;96748.66;;;20.85;90.68
16461;BME280;8341;42.048;24.650;2023-05-16T13:37:10;96767.47;;;20.71;92.50
16461;BME280;8341;42.048;24.650;2023-05-16T13:39:37;96763.00;;;20.60;93.60
16461;BME280;8341;42.048;24.650;2023-05-16T13:42:04;96769.28;;;20.53;95.02
16461;BME280;8341;42.048;24.650;2023-05-16T13:44:32;96753.41;;;20.62;94.71
16461;BME280;8341;42.048;24.650;2023-05-16T13:46:59;96760.44;;;20.85;94.53
16461;BME280;8341;42.048;24.650;2023-05-16T13:49:26;96746.06;;;20.87;92.59
16461;BME280;8341;42.048;24.650;2023-05-16T13:51:53;96754.53;;;20.74;93.07
16461;BME280;8341;42.048;24.650;2023-05-16T13:54:19;96758.06;;;20.97;94.66
16461;BME280;8341;42.048;24.650;2023-05-16T13:56:47;96755.47;;;20.84;92.62
16461;BME280;8341;42.048;24.650;2023-05-16T13:59:14;96753.25;;;20.75;92.12
16461;BME280;8341;42.048;24.650;2023-05-16T14:01:42;96757.31;;;20.74;94.15
16461;BME280;8341;42.048;24.650;2023-05-16T14:04:09;96765.56;;;20.51;95.49
16461;BME280;8341;42.048;24.650;2023-05-16T14:06:36;96766.81;;;20.35;96.01
16461;BME280;8341;42.048;24.650;2023-05-16T14:09:03;96767.56;;;20.35;96.77
16461;BME280;8341;42.048;24.650;2023-05-16T14:11:29;96756.53;;;20.07;100.00
16461;BME280;8341;42.048;24.650;2023-05-16T14:13:56;96754.34;;;20.13;100.00
16461;BME280;8341;42.048;24.650;2023-05-16T14:16:24;96759.91;;;20.21;100.00
16461;BME280;8341;42.048;24.650;2023-05-16T14:18:52;96752.03;;;19.89;100.00
16461;BME280;8341;42.048;24.650;2023-05-16T14:21:19;96762.56;;;19.98;100.00
16461;BME280;8341;42.048;24.650;2023-05-16T14:23:45;96750.38;;;19.93;100.00
16461;BME280;8341;42.048;24.650;2023-05-16T14:26:13;96754.22;;;19.90;100.00
16461;BME280;8341;42.048;24.650;2023-05-16T14:28:40;96756.00;;;19.73;100.00
16461;BME280;8341;42.048;24.650;2023-05-16T14:31:07;96766.66;;;19.69;100.00
16461;BME280;8341;42.048;24.650;2023-05-16T14:33:34;96765.97;;;19.76;100.00
16461;BME280;8341;42.048;24.650;2023-05-16T14:36:02;96767.25;;;19.75;100.00
16461;BME280;8341;42.048;24.650;2023-05-16T14:38:29;96776.66;;;19.72;100.00
16461;BME280;8341;42.048;24.650;2023-05-16T14:40:56;96770.34;;;19.64;100.00
16461;BME280;8341;42.048;24.650;2023-05-16T14:43:23;96765.78;;;19.46;100.00
16461;BME280;8341;42.048;24.650;2023-05-16T14:45:49;96776.47;;;19.49;100.00
16461;BME280;8341;42.048;24.650;2023-05-16T14:48:16;96773.00;;;19.49;100.00
16461;BME280;8341;42.048;24.650;2023-05-16T14:50:43;96775.34;;;19.45;100.00
16461;BME280;8341;42.048;24.650;2023-05-16T14:53:11;96781.81;;;19.47;100.00
16461;BME280;8341;42.048;24.650;2023-05-16T14:55:38;96776.09;;;19.45;100.00
16461;BME280;8341;42.048;24.650;2023-05-16T14:58:05;96783.78;;;19.39;100.00
16461;BME280;8341;42.048;24.650;2023-05-16T15:00:32;96770.19;;;19.41;100.00